sensor_id;sensor_type;location;lat;lon;timestamp;P1;durP1;ratioP1;P2;durP2;ratioP2
38693;SDS011;24447;43.460;25.744;2022-10-16T00:02:01;12.68;;;5.85;;
38693;SDS011;24447;43.460;25.744;2022-10-16T00:04:27;12.23;;;5.10;;
38693;SDS011;24447;43.460;25.744;2022-10-16T00:06:53;14.18;;;6.72;;
38693;SDS011;24447;43.460;25.744;2022-10-16T00:09:19;12.43;;;4.47;;
38693;SDS011;24447;43.460;25.744;2022-10-16T00:11:45;14.45;;;5.60;;
38693;SDS011;24447;43.460;25.744;2022-10-16T00:14:13;11.43;;;4.45;;
38693;SDS011;24447;43.460;25.744;2022-10-16T00:16:39;16.70;;;5.07;;
38693;SDS011;24447;43.460;25.744;2022-10-16T00:19:06;11.80;;;4.38;;
38693;SDS011;24447;43.460;25.744;2022-10-16T00:21:32;7.18;;;4.43;;
38693;SDS011;24447;43.460;25.744;2022-10-16T00:24:00;12.15;;;5.32;;
38693;SDS011;24447;43.460;25.744;2022-10-16T00:26:28;9.20;;;5.55;;
38693;SDS011;24447;43.460;25.744;2022-10-16T00:28:55;10.15;;;4.85;;
38693;SDS011;24447;43.460;25.744;2022-10-16T00:31:21;9.15;;;4.85;;
38693;SDS011;24447;43.460;25.744;2022-10-16T00:33:48;16.98;;;5.75;;
38693;SDS011;24447;43.460;25.744;2022-10-16T00:36:15;11.43;;;4.63;;
38693;SDS011;24447;43.460;25.744;2022-10-16T00:38:42;12.45;;;5.28;;
38693;SDS011;24447;43.460;25.744;2022-10-16T00:41:10;14.00;;;6.22;;
38693;SDS011;24447;43.460;25.744;2022-10-16T00:43:40;18.60;;;9.77;;
38693;SDS011;24447;43.460;25.744;2022-10-16T00:46:11;20.08;;;7.53;;
38693;SDS011;24447;43.460;25.744;2022-10-16T00:48:39;14.60;;;5.50;;
38693;SDS011;24447;43.460;25.744;2022-10-16T00:51:06;15.30;;;6.93;;
38693;SDS011;24447;43.460;25.744;2022-10-16T00:53:32;13.20;;;6.10;;
38693;SDS011;24447;43.460;25.744;2022-10-16T00:55:59;13.40;;;5.43;;
38693;SDS011;24447;43.460;25.744;2022-10-16T00:58:25;9.27;;;4.93;;
38693;SDS011;24447;43.460;25.744;2022-10-16T01:00:50;11.85;;;6.47;;
38693;SDS011;24447;43.460;25.744;2022-10-16T01:03:24;15.68;;;5.97;;
38693;SDS011;24447;43.460;25.744;2022-10-16T01:17:20;14.00;;;6.90;;
38693;SDS011;24447;43.460;25.744;2022-10-16T01:23:04;14.10;;;7.65;;
38693;SDS011;24447;43.460;25.744;2022-10-16T01:25:39;21.23;;;7.68;;
38693;SDS011;24447;43.460;25.744;2022-10-16T01:28:14;13.93;;;6.25;;
38693;SDS011;24447;43.460;25.744;2022-10-16T01:30:42;17.10;;;8.20;;
38693;SDS011;24447;43.460;25.744;2022-10-16T01:35:52;14.43;;;7.35;;
38693;SDS011;24447;43.460;25.744;2022-10-16T01:38:20;10.98;;;6.35;;
38693;SDS011;24447;43.460;25.744;2022-10-16T01:40:50;11.90;;;6.10;;
38693;SDS011;24447;43.460;25.744;2022-10-16T01:43:19;12.45;;;6.03;;
38693;SDS011;24447;43.460;25.744;2022-10-16T01:45:48;14.50;;;5.82;;
38693;SDS011;24447;43.460;25.744;2022-10-16T01:48:14;12.55;;;5.65;;
38693;SDS011;24447;43.460;25.744;2022-10-16T01:50:43;14.98;;;5.68;;
38693;SDS011;24447;43.460;25.744;2022-10-16T01:53:13;15.35;;;7.15;;
38693;SDS011;24447;43.460;25.744;2022-10-16T01:55:41;13.07;;;6.55;;
38693;SDS011;24447;43.460;25.744;2022-10-16T01:58:10;11.68;;;5.70;;
38693;SDS011;24447;43.460;25.744;2022-10-16T02:00:38;12.70;;;4.97;;
38693;SDS011;24447;43.460;25.744;2022-10-16T02:03:05;12.05;;;5.47;;
38693;SDS011;24447;43.460;25.744;2022-10-16T02:05:34;45.60;;;8.57;;
38693;SDS011;24447;43.460;25.744;2022-10-16T02:08:04;15.85;;;5.63;;
38693;SDS011;24447;43.460;25.744;2022-10-16T02:10:30;15.05;;;5.68;;
38693;SDS011;24447;43.460;25.744;2022-10-16T02:12:57;14.68;;;5.97;;
38693;SDS011;24447;43.460;25.744;2022-10-16T02:15:29;12.07;;;4.68;;
38693;SDS011;24447;43.460;25.744;2022-10-16T02:17:55;13.57;;;5.68;;
38693;SDS011;24447;43.460;25.744;2022-10-16T02:20:22;11.77;;;5.90;;
38693;SDS011;24447;43.460;25.744;2022-10-16T02:22:53;9.55;;;4.93;;
38693;SDS011;24447;43.460;25.744;2022-10-16T02:25:34;5.82;;;4.35;;
38693;SDS011;24447;43.460;25.744;2022-10-16T02:28:07;14.32;;;5.22;;
38693;SDS011;24447;43.460;25.744;2022-10-16T02:33:07;12.52;;;5.63;;
38693;SDS011;24447;43.460;25.744;2022-10-16T02:35:35;13.23;;;4.88;;
38693;SDS011;24447;43.460;25.744;2022-10-16T02:38:01;7.43;;;4.13;;
38693;SDS011;24447;43.460;25.744;2022-10-16T02:40:27;11.55;;;5.47;;
38693;SDS011;24447;43.460;25.744;2022-10-16T02:42:54;10.43;;;4.60;;
38693;SDS011;24447;43.460;25.744;2022-10-16T02:45:21;11.93;;;5.35;;
38693;SDS011;24447;43.460;25.744;2022-10-16T02:47:47;13.07;;;5.90;;
38693;SDS011;24447;43.460;25.744;2022-10-16T02:50:13;13.40;;;5.85;;
38693;SDS011;24447;43.460;25.744;2022-10-16T02:52:40;8.77;;;4.38;;
38693;SDS011;24447;43.460;25.744;2022-10-16T02:55:06;11.23;;;4.65;;
38693;SDS011;24447;43.460;25.744;2022-10-16T02:57:32;9.32;;;4.93;;
38693;SDS011;24447;43.460;25.744;2022-10-16T02:59:58;9.45;;;4.78;;
38693;SDS011;24447;43.460;25.744;2022-10-16T03:02:24;10.77;;;4.00;;
38693;SDS011;24447;43.460;25.744;2022-10-16T03:04:50;10.70;;;5.15;;
38693;SDS011;24447;43.460;25.744;2022-10-16T03:07:16;11.43;;;4.90;;
38693;SDS011;24447;43.460;25.744;2022-10-16T03:09:42;11.38;;;5.30;;
38693;SDS011;24447;43.460;25.744;2022-10-16T03:12:07;9.32;;;4.78;;
38693;SDS011;24447;43.460;25.744;2022-10-16T03:14:33;13.02;;;5.18;;
38693;SDS011;24447;43.460;25.744;2022-10-16T03:16:59;8.18;;;4.38;;
38693;SDS011;24447;43.460;25.744;2022-10-16T03:19:25;11.20;;;4.15;;
38693;SDS011;24447;43.460;25.744;2022-10-16T03:21:51;11.15;;;4.85;;
38693;SDS011;24447;43.460;25.744;2022-10-16T03:24:17;11.65;;;5.00;;
38693;SDS011;24447;43.460;25.744;2022-10-16T03:26:43;12.75;;;6.40;;
38693;SDS011;24447;43.460;25.744;2022-10-16T03:29:09;7.43;;;4.25;;
38693;SDS011;24447;43.460;25.744;2022-10-16T03:31:35;8.10;;;4.03;;
38693;SDS011;24447;43.460;25.744;2022-10-16T03:34:01;7.53;;;4.10;;
38693;SDS011;24447;43.460;25.744;2022-10-16T03:36:27;11.90;;;5.10;;
38693;SDS011;24447;43.460;25.744;2022-10-16T03:38:52;12.23;;;5.05;;
38693;SDS011;24447;43.460;25.744;2022-10-16T03:41:18;11.77;;;5.55;;
38693;SDS011;24447;43.460;25.744;2022-10-16T03:43:44;13.82;;;4.90;;
38693;SDS011;24447;43.460;25.744;2022-10-16T03:46:10;15.32;;;6.28;;
38693;SDS011;24447;43.460;25.744;2022-10-16T03:48:36;9.20;;;4.28;;
38693;SDS011;24447;43.460;25.744;2022-10-16T03:51:02;16.17;;;5.85;;
38693;SDS011;24447;43.460;25.744;2022-10-16T03:53:28;8.90;;;4.60;;
38693;SDS011;24447;43.460;25.744;2022-10-16T03:55:54;6.85;;;4.03;;
38693;SDS011;24447;43.460;25.744;2022-10-16T03:58:20;11.10;;;4.72;;
38693;SDS011;24447;43.460;25.744;2022-10-16T04:00:46;9.38;;;4.25;;
38693;SDS011;24447;43.460;25.744;2022-10-16T04:03:13;9.45;;;5.20;;
38693;SDS011;24447;43.460;25.744;2022-10-16T04:05:39;16.75;;;5.25;;
38693;SDS011;24447;43.460;25.744;2022-10-16T04:08:05;0.10;;;0.10;;
38693;SDS011;24447;43.460;25.744;2022-10-16T04:10:31;12.57;;;6.53;;
38693;SDS011;24447;43.460;25.744;2022-10-16T04:12:57;8.95;;;4.93;;
38693;SDS011;24447;43.460;25.744;2022-10-16T04:15:23;13.85;;;5.57;;
38693;SDS011;24447;43.460;25.744;2022-10-16T04:17:49;15.55;;;6.78;;
38693;SDS011;24447;43.460;25.744;2022-10-16T04:20:15;13.70;;;5.63;;
38693;SDS011;24447;43.460;25.744;2022-10-16T04:22:41;13.43;;;5.68;;
38693;SDS011;24447;43.460;25.744;2022-10-16T04:25:07;13.05;;;5.50;;
38693;SDS011;24447;43.460;25.744;2022-10-16T04:27:33;8.50;;;4.70;;
38693;SDS011;24447;43.460;25.744;2022-10-16T04:29:59;11.45;;;5.78;;
38693;SDS011;24447;43.460;25.744;2022-10-16T04:32:26;11.75;;;5.38;;
38693;SDS011;24447;43.460;25.744;2022-10-16T04:34:52;16.45;;;5.45;;
38693;SDS011;24447;43.460;25.744;2022-10-16T04:37:18;12.18;;;5.47;;
38693;SDS011;24447;43.460;25.744;2022-10-16T04:39:44;14.05;;;5.97;;
38693;SDS011;24447;43.460;25.744;2022-10-16T04:42:10;14.02;;;4.80;;
38693;SDS011;24447;43.460;25.744;2022-10-16T04:44:36;12.23;;;5.10;;
38693;SDS011;24447;43.460;25.744;2022-10-16T04:47:02;18.10;;;6.65;;
38693;SDS011;24447;43.460;25.744;2022-10-16T04:49:29;17.23;;;6.28;;
38693;SDS011;24447;43.460;25.744;2022-10-16T04:51:55;11.73;;;4.82;;
38693;SDS011;24447;43.460;25.744;2022-10-16T04:54:21;14.90;;;5.70;;
38693;SDS011;24447;43.460;25.744;2022-10-16T04:56:47;11.27;;;5.30;;
38693;SDS011;24447;43.460;25.744;2022-10-16T04:59:15;11.50;;;5.18;;
38693;SDS011;24447;43.460;25.744;2022-10-16T05:01:42;18.13;;;6.45;;
38693;SDS011;24447;43.460;25.744;2022-10-16T05:04:08;11.80;;;5.82;;
38693;SDS011;24447;43.460;25.744;2022-10-16T05:06:34;15.00;;;5.68;;
38693;SDS011;24447;43.460;25.744;2022-10-16T05:09:01;15.15;;;5.30;;
38693;SDS011;24447;43.460;25.744;2022-10-16T05:11:27;17.95;;;5.45;;
38693;SDS011;24447;43.460;25.744;2022-10-16T05:13:52;13.10;;;6.72;;
38693;SDS011;24447;43.460;25.744;2022-10-16T05:16:18;12.38;;;4.93;;
38693;SDS011;24447;43.460;25.744;2022-10-16T05:18:44;9.95;;;4.68;;
38693;SDS011;24447;43.460;25.744;2022-10-16T05:21:10;13.32;;;4.78;;
38693;SDS011;24447;43.460;25.744;2022-10-16T05:23:36;9.73;;;4.53;;
38693;SDS011;24447;43.460;25.744;2022-10-16T05:26:02;8.45;;;3.97;;
38693;SDS011;24447;43.460;25.744;2022-10-16T05:28:29;10.27;;;3.50;;
38693;SDS011;24447;43.460;25.744;2022-10-16T05:30:55;12.70;;;4.40;;
38693;SDS011;24447;43.460;25.744;2022-10-16T05:33:23;10.25;;;5.55;;
38693;SDS011;24447;43.460;25.744;2022-10-16T05:35:50;14.98;;;5.68;;
38693;SDS011;24447;43.460;25.744;2022-10-16T05:38:16;13.75;;;4.82;;
38693;SDS011;24447;43.460;25.744;2022-10-16T05:40:43;9.90;;;4.70;;
38693;SDS011;24447;43.460;25.744;2022-10-16T05:43:09;15.05;;;7.50;;
38693;SDS011;24447;43.460;25.744;2022-10-16T05:45:34;12.75;;;5.82;;
38693;SDS011;24447;43.460;25.744;2022-10-16T05:48:00;16.13;;;5.93;;
38693;SDS011;24447;43.460;25.744;2022-10-16T05:50:27;11.00;;;4.78;;
38693;SDS011;24447;43.460;25.744;2022-10-16T05:52:53;7.97;;;4.65;;
38693;SDS011;24447;43.460;25.744;2022-10-16T05:55:18;13.43;;;5.18;;
38693;SDS011;24447;43.460;25.744;2022-10-16T05:57:44;10.40;;;4.70;;
38693;SDS011;24447;43.460;25.744;2022-10-16T06:00:10;8.20;;;4.25;;
38693;SDS011;24447;43.460;25.744;2022-10-16T06:02:36;11.65;;;4.88;;
38693;SDS011;24447;43.460;25.744;2022-10-16T06:05:02;11.20;;;4.80;;
38693;SDS011;24447;43.460;25.744;2022-10-16T06:07:28;7.57;;;4.28;;
38693;SDS011;24447;43.460;25.744;2022-10-16T06:09:54;8.00;;;4.50;;
38693;SDS011;24447;43.460;25.744;2022-10-16T06:12:20;11.70;;;5.15;;
38693;SDS011;24447;43.460;25.744;2022-10-16T06:14:46;12.18;;;5.50;;
38693;SDS011;24447;43.460;25.744;2022-10-16T06:17:13;15.85;;;7.32;;
38693;SDS011;24447;43.460;25.744;2022-10-16T06:19:39;15.50;;;9.00;;
38693;SDS011;24447;43.460;25.744;2022-10-16T06:22:06;27.60;;;15.55;;
38693;SDS011;24447;43.460;25.744;2022-10-16T06:24:32;27.80;;;10.65;;
38693;SDS011;24447;43.460;25.744;2022-10-16T06:26:58;26.92;;;13.40;;
38693;SDS011;24447;43.460;25.744;2022-10-16T06:29:24;25.92;;;13.30;;
38693;SDS011;24447;43.460;25.744;2022-10-16T06:31:50;26.30;;;13.30;;
38693;SDS011;24447;43.460;25.744;2022-10-16T06:34:15;21.50;;;9.88;;
38693;SDS011;24447;43.460;25.744;2022-10-16T06:36:41;23.75;;;11.25;;
38693;SDS011;24447;43.460;25.744;2022-10-16T06:39:08;21.98;;;10.13;;
38693;SDS011;24447;43.460;25.744;2022-10-16T06:41:34;20.90;;;9.88;;
38693;SDS011;24447;43.460;25.744;2022-10-16T06:44:01;19.98;;;9.88;;
38693;SDS011;24447;43.460;25.744;2022-10-16T06:46:31;26.08;;;12.10;;
38693;SDS011;24447;43.460;25.744;2022-10-16T06:48:57;25.83;;;10.20;;
38693;SDS011;24447;43.460;25.744;2022-10-16T06:51:23;22.85;;;10.15;;
38693;SDS011;24447;43.460;25.744;2022-10-16T06:53:51;25.95;;;11.43;;
38693;SDS011;24447;43.460;25.744;2022-10-16T06:56:19;24.73;;;11.02;;
38693;SDS011;24447;43.460;25.744;2022-10-16T06:58:50;25.88;;;11.13;;
38693;SDS011;24447;43.460;25.744;2022-10-16T07:01:17;19.08;;;8.88;;
38693;SDS011;24447;43.460;25.744;2022-10-16T07:03:44;19.13;;;8.77;;
38693;SDS011;24447;43.460;25.744;2022-10-16T07:06:11;16.65;;;7.65;;
38693;SDS011;24447;43.460;25.744;2022-10-16T07:08:39;14.10;;;6.85;;
38693;SDS011;24447;43.460;25.744;2022-10-16T07:11:10;14.43;;;5.95;;
38693;SDS011;24447;43.460;25.744;2022-10-16T07:13:40;14.10;;;5.97;;
38693;SDS011;24447;43.460;25.744;2022-10-16T07:18:38;13.10;;;6.57;;
38693;SDS011;24447;43.460;25.744;2022-10-16T07:23:31;13.40;;;6.00;;
38693;SDS011;24447;43.460;25.744;2022-10-16T07:25:57;12.23;;;5.15;;
38693;SDS011;24447;43.460;25.744;2022-10-16T07:28:23;12.88;;;6.13;;
38693;SDS011;24447;43.460;25.744;2022-10-16T07:30:48;12.93;;;5.80;;
38693;SDS011;24447;43.460;25.744;2022-10-16T07:33:14;12.13;;;6.10;;
38693;SDS011;24447;43.460;25.744;2022-10-16T07:35:50;16.13;;;4.72;;
38693;SDS011;24447;43.460;25.744;2022-10-16T07:38:17;14.18;;;6.05;;
38693;SDS011;24447;43.460;25.744;2022-10-16T07:40:43;11.23;;;5.78;;
38693;SDS011;24447;43.460;25.744;2022-10-16T07:43:10;11.32;;;5.88;;
38693;SDS011;24447;43.460;25.744;2022-10-16T07:45:36;15.35;;;6.07;;
38693;SDS011;24447;43.460;25.744;2022-10-16T07:48:02;12.10;;;4.88;;
38693;SDS011;24447;43.460;25.744;2022-10-16T07:50:28;9.27;;;4.97;;
38693;SDS011;24447;43.460;25.744;2022-10-16T07:52:54;12.10;;;5.47;;
38693;SDS011;24447;43.460;25.744;2022-10-16T07:55:20;13.32;;;5.32;;
38693;SDS011;24447;43.460;25.744;2022-10-16T07:57:46;11.40;;;5.43;;
38693;SDS011;24447;43.460;25.744;2022-10-16T08:00:12;13.10;;;5.57;;
38693;SDS011;24447;43.460;25.744;2022-10-16T08:02:41;10.63;;;5.43;;
38693;SDS011;24447;43.460;25.744;2022-10-16T08:05:07;12.38;;;5.95;;
38693;SDS011;24447;43.460;25.744;2022-10-16T08:07:34;16.33;;;6.45;;
38693;SDS011;24447;43.460;25.744;2022-10-16T08:09:59;17.30;;;5.40;;
38693;SDS011;24447;43.460;25.744;2022-10-16T08:12:25;7.05;;;3.92;;
38693;SDS011;24447;43.460;25.744;2022-10-16T08:14:51;9.60;;;4.57;;
38693;SDS011;24447;43.460;25.744;2022-10-16T08:17:17;7.75;;;4.72;;
38693;SDS011;24447;43.460;25.744;2022-10-16T08:19:44;9.30;;;4.75;;
38693;SDS011;24447;43.460;25.744;2022-10-16T08:22:13;10.30;;;5.15;;
38693;SDS011;24447;43.460;25.744;2022-10-16T08:24:40;7.78;;;4.55;;
38693;SDS011;24447;43.460;25.744;2022-10-16T08:27:06;7.93;;;4.68;;
38693;SDS011;24447;43.460;25.744;2022-10-16T08:29:34;8.52;;;4.22;;
38693;SDS011;24447;43.460;25.744;2022-10-16T08:32:00;8.48;;;4.85;;
38693;SDS011;24447;43.460;25.744;2022-10-16T08:34:26;10.90;;;5.57;;
38693;SDS011;24447;43.460;25.744;2022-10-16T08:36:55;9.82;;;4.72;;
38693;SDS011;24447;43.460;25.744;2022-10-16T08:39:20;7.85;;;4.07;;
38693;SDS011;24447;43.460;25.744;2022-10-16T08:41:57;9.27;;;4.35;;
38693;SDS011;24447;43.460;25.744;2022-10-16T08:50:26;32.80;;;5.35;;
38693;SDS011;24447;43.460;25.744;2022-10-16T08:52:53;7.90;;;3.75;;
38693;SDS011;24447;43.460;25.744;2022-10-16T08:57:49;15.10;;;6.70;;
38693;SDS011;24447;43.460;25.744;2022-10-16T09:00:15;5.72;;;3.53;;
38693;SDS011;24447;43.460;25.744;2022-10-16T09:02:45;7.40;;;3.58;;
38693;SDS011;24447;43.460;25.744;2022-10-16T09:10:38;11.00;;;4.53;;
38693;SDS011;24447;43.460;25.744;2022-10-16T09:13:17;7.13;;;3.30;;
38693;SDS011;24447;43.460;25.744;2022-10-16T09:23:45;7.05;;;3.83;;
38693;SDS011;24447;43.460;25.744;2022-10-16T09:26:12;8.52;;;3.80;;
38693;SDS011;24447;43.460;25.744;2022-10-16T09:28:39;7.53;;;4.40;;
38693;SDS011;24447;43.460;25.744;2022-10-16T09:31:07;6.43;;;3.92;;
38693;SDS011;24447;43.460;25.744;2022-10-16T09:33:39;4.63;;;3.20;;
38693;SDS011;24447;43.460;25.744;2022-10-16T09:36:06;7.00;;;3.38;;
38693;SDS011;24447;43.460;25.744;2022-10-16T09:38:34;9.18;;;3.60;;
38693;SDS011;24447;43.460;25.744;2022-10-16T09:43:59;5.68;;;3.33;;
38693;SDS011;24447;43.460;25.744;2022-10-16T09:56:33;14.20;;;3.42;;
38693;SDS011;24447;43.460;25.744;2022-10-16T09:59:13;2.45;;;2.10;;
38693;SDS011;24447;43.460;25.744;2022-10-16T10:01:50;6.63;;;3.72;;
38693;SDS011;24447;43.460;25.744;2022-10-16T10:04:17;7.00;;;3.22;;
38693;SDS011;24447;43.460;25.744;2022-10-16T10:06:53;6.10;;;3.20;;
38693;SDS011;24447;43.460;25.744;2022-10-16T10:11:57;5.03;;;2.90;;
38693;SDS011;24447;43.460;25.744;2022-10-16T10:14:24;3.00;;;2.45;;
38693;SDS011;24447;43.460;25.744;2022-10-16T10:20:14;4.93;;;3.08;;
38693;SDS011;24447;43.460;25.744;2022-10-16T10:30:44;6.85;;;2.90;;
38693;SDS011;24447;43.460;25.744;2022-10-16T10:36:12;9.50;;;2.72;;
38693;SDS011;24447;43.460;25.744;2022-10-16T10:50:14;4.13;;;2.60;;
38693;SDS011;24447;43.460;25.744;2022-10-16T10:54:02;3.08;;;2.20;;
38693;SDS011;24447;43.460;25.744;2022-10-16T10:56:24;8.45;;;3.65;;
38693;SDS011;24447;43.460;25.744;2022-10-16T11:10:33;4.40;;;2.95;;
38693;SDS011;24447;43.460;25.744;2022-10-16T11:16:17;6.28;;;3.17;;
38693;SDS011;24447;43.460;25.744;2022-10-16T11:18:50;3.75;;;2.75;;
38693;SDS011;24447;43.460;25.744;2022-10-16T11:21:22;4.88;;;2.90;;
38693;SDS011;24447;43.460;25.744;2022-10-16T11:23:51;7.68;;;4.22;;
38693;SDS011;24447;43.460;25.744;2022-10-16T11:26:21;4.50;;;2.72;;
38693;SDS011;24447;43.460;25.744;2022-10-16T11:28:54;4.88;;;2.88;;
38693;SDS011;24447;43.460;25.744;2022-10-16T11:31:43;6.43;;;2.75;;
38693;SDS011;24447;43.460;25.744;2022-10-16T11:34:22;10.73;;;4.28;;
38693;SDS011;24447;43.460;25.744;2022-10-16T11:37:36;5.22;;;2.92;;
38693;SDS011;24447;43.460;25.744;2022-10-16T11:40:14;4.78;;;2.88;;
38693;SDS011;24447;43.460;25.744;2022-10-16T11:42:48;3.22;;;2.30;;
38693;SDS011;24447;43.460;25.744;2022-10-16T11:47:51;5.35;;;3.38;;
38693;SDS011;24447;43.460;25.744;2022-10-16T11:50:45;5.28;;;3.42;;
38693;SDS011;24447;43.460;25.744;2022-10-16T11:56:12;5.28;;;2.95;;
38693;SDS011;24447;43.460;25.744;2022-10-16T12:01:31;7.03;;;3.17;;
38693;SDS011;24447;43.460;25.744;2022-10-16T12:06:44;3.50;;;3.00;;
38693;SDS011;24447;43.460;25.744;2022-10-16T12:09:15;5.05;;;3.10;;
38693;SDS011;24447;43.460;25.744;2022-10-16T12:11:55;5.20;;;3.03;;
38693;SDS011;24447;43.460;25.744;2022-10-16T12:14:33;5.95;;;3.50;;
38693;SDS011;24447;43.460;25.744;2022-10-16T12:17:22;5.22;;;3.13;;
38693;SDS011;24447;43.460;25.744;2022-10-16T12:19:58;6.30;;;3.00;;
38693;SDS011;24447;43.460;25.744;2022-10-16T12:22:26;6.70;;;3.25;;
38693;SDS011;24447;43.460;25.744;2022-10-16T12:24:54;4.30;;;3.03;;
38693;SDS011;24447;43.460;25.744;2022-10-16T12:27:38;3.90;;;2.67;;
38693;SDS011;24447;43.460;25.744;2022-10-16T12:30:04;4.78;;;2.85;;
38693;SDS011;24447;43.460;25.744;2022-10-16T12:32:32;4.28;;;2.40;;
38693;SDS011;24447;43.460;25.744;2022-10-16T12:35:00;6.07;;;3.30;;
38693;SDS011;24447;43.460;25.744;2022-10-16T12:37:34;7.28;;;3.63;;
38693;SDS011;24447;43.460;25.744;2022-10-16T12:40:15;12.68;;;3.33;;
38693;SDS011;24447;43.460;25.744;2022-10-16T12:42:49;5.25;;;2.50;;
38693;SDS011;24447;43.460;25.744;2022-10-16T12:45:26;5.68;;;2.90;;
38693;SDS011;24447;43.460;25.744;2022-10-16T12:47:54;6.10;;;2.97;;
38693;SDS011;24447;43.460;25.744;2022-10-16T12:50:35;4.25;;;3.15;;
38693;SDS011;24447;43.460;25.744;2022-10-16T12:53:03;4.35;;;3.17;;
38693;SDS011;24447;43.460;25.744;2022-10-16T12:55:51;5.72;;;3.05;;
38693;SDS011;24447;43.460;25.744;2022-10-16T13:01:42;3.15;;;2.10;;
38693;SDS011;24447;43.460;25.744;2022-10-16T13:17:44;5.03;;;2.95;;
38693;SDS011;24447;43.460;25.744;2022-10-16T13:20:24;6.25;;;3.05;;
38693;SDS011;24447;43.460;25.744;2022-10-16T13:25:56;7.88;;;3.38;;
38693;SDS011;24447;43.460;25.744;2022-10-16T13:28:27;6.95;;;3.65;;
38693;SDS011;24447;43.460;25.744;2022-10-16T13:30:56;6.35;;;3.50;;
38693;SDS011;24447;43.460;25.744;2022-10-16T13:33:26;13.55;;;4.75;;
38693;SDS011;24447;43.460;25.744;2022-10-16T13:35:57;9.77;;;3.70;;
38693;SDS011;24447;43.460;25.744;2022-10-16T13:38:25;3.95;;;2.67;;
38693;SDS011;24447;43.460;25.744;2022-10-16T13:46:00;7.47;;;3.47;;
38693;SDS011;24447;43.460;25.744;2022-10-16T13:48:28;7.72;;;3.22;;
38693;SDS011;24447;43.460;25.744;2022-10-16T13:51:05;7.85;;;3.65;;
38693;SDS011;24447;43.460;25.744;2022-10-16T13:53:38;4.43;;;2.78;;
38693;SDS011;24447;43.460;25.744;2022-10-16T13:56:06;7.03;;;3.28;;
38693;SDS011;24447;43.460;25.744;2022-10-16T13:58:33;5.05;;;3.00;;
38693;SDS011;24447;43.460;25.744;2022-10-16T14:01:16;6.25;;;3.33;;
38693;SDS011;24447;43.460;25.744;2022-10-16T14:03:43;11.93;;;5.20;;
38693;SDS011;24447;43.460;25.744;2022-10-16T14:06:14;11.30;;;5.40;;
38693;SDS011;24447;43.460;25.744;2022-10-16T14:08:42;6.25;;;3.65;;
38693;SDS011;24447;43.460;25.744;2022-10-16T14:11:10;14.50;;;4.90;;
38693;SDS011;24447;43.460;25.744;2022-10-16T14:13:37;10.98;;;4.60;;
38693;SDS011;24447;43.460;25.744;2022-10-16T14:16:06;9.50;;;3.22;;
38693;SDS011;24447;43.460;25.744;2022-10-16T14:18:34;10.27;;;4.82;;
38693;SDS011;24447;43.460;25.744;2022-10-16T14:21:07;3.88;;;2.75;;
38693;SDS011;24447;43.460;25.744;2022-10-16T14:23:37;5.45;;;3.00;;
38693;SDS011;24447;43.460;25.744;2022-10-16T14:28:39;9.35;;;4.18;;
38693;SDS011;24447;43.460;25.744;2022-10-16T14:33:44;25.98;;;8.80;;
38693;SDS011;24447;43.460;25.744;2022-10-16T14:36:14;11.98;;;6.10;;
38693;SDS011;24447;43.460;25.744;2022-10-16T14:38:57;14.88;;;5.60;;
38693;SDS011;24447;43.460;25.744;2022-10-16T14:41:23;7.18;;;3.85;;
38693;SDS011;24447;43.460;25.744;2022-10-16T14:43:50;10.75;;;3.90;;
38693;SDS011;24447;43.460;25.744;2022-10-16T14:46:19;4.93;;;2.83;;
38693;SDS011;24447;43.460;25.744;2022-10-16T14:48:50;5.72;;;3.70;;
38693;SDS011;24447;43.460;25.744;2022-10-16T14:53:49;7.22;;;3.28;;
38693;SDS011;24447;43.460;25.744;2022-10-16T14:56:23;8.50;;;3.88;;
38693;SDS011;24447;43.460;25.744;2022-10-16T14:58:50;5.82;;;3.22;;
38693;SDS011;24447;43.460;25.744;2022-10-16T15:01:17;11.63;;;5.20;;
38693;SDS011;24447;43.460;25.744;2022-10-16T15:03:43;8.85;;;4.05;;
38693;SDS011;24447;43.460;25.744;2022-10-16T15:06:10;8.40;;;4.00;;
38693;SDS011;24447;43.460;25.744;2022-10-16T15:08:37;5.85;;;3.08;;
38693;SDS011;24447;43.460;25.744;2022-10-16T15:11:03;7.40;;;3.22;;
38693;SDS011;24447;43.460;25.744;2022-10-16T15:13:30;7.15;;;3.50;;
38693;SDS011;24447;43.460;25.744;2022-10-16T15:15:56;15.18;;;6.25;;
38693;SDS011;24447;43.460;25.744;2022-10-16T15:18:23;21.00;;;9.00;;
38693;SDS011;24447;43.460;25.744;2022-10-16T15:20:50;16.58;;;6.22;;
38693;SDS011;24447;43.460;25.744;2022-10-16T15:23:17;10.52;;;4.35;;
38693;SDS011;24447;43.460;25.744;2022-10-16T15:25:51;21.85;;;6.35;;
38693;SDS011;24447;43.460;25.744;2022-10-16T15:28:19;14.30;;;6.07;;
38693;SDS011;24447;43.460;25.744;2022-10-16T15:30:46;16.35;;;5.00;;
38693;SDS011;24447;43.460;25.744;2022-10-16T15:33:14;11.38;;;4.43;;
38693;SDS011;24447;43.460;25.744;2022-10-16T15:35:41;10.23;;;4.82;;
38693;SDS011;24447;43.460;25.744;2022-10-16T15:38:11;14.65;;;4.40;;
38693;SDS011;24447;43.460;25.744;2022-10-16T15:43:04;9.30;;;4.32;;
38693;SDS011;24447;43.460;25.744;2022-10-16T15:45:31;7.22;;;4.15;;
38693;SDS011;24447;43.460;25.744;2022-10-16T15:47:57;10.10;;;3.78;;
38693;SDS011;24447;43.460;25.744;2022-10-16T15:50:23;5.85;;;3.50;;
38693;SDS011;24447;43.460;25.744;2022-10-16T15:52:49;7.05;;;3.30;;
38693;SDS011;24447;43.460;25.744;2022-10-16T15:55:16;7.43;;;3.80;;
38693;SDS011;24447;43.460;25.744;2022-10-16T15:57:43;8.57;;;3.85;;
38693;SDS011;24447;43.460;25.744;2022-10-16T16:00:14;7.65;;;3.78;;
38693;SDS011;24447;43.460;25.744;2022-10-16T16:02:42;9.50;;;3.92;;
38693;SDS011;24447;43.460;25.744;2022-10-16T16:05:09;7.35;;;3.95;;
38693;SDS011;24447;43.460;25.744;2022-10-16T16:07:36;7.88;;;3.47;;
38693;SDS011;24447;43.460;25.744;2022-10-16T16:10:03;7.38;;;3.63;;
38693;SDS011;24447;43.460;25.744;2022-10-16T16:12:31;6.93;;;3.95;;
38693;SDS011;24447;43.460;25.744;2022-10-16T16:14:57;6.43;;;3.78;;
38693;SDS011;24447;43.460;25.744;2022-10-16T16:17:23;6.43;;;3.65;;
38693;SDS011;24447;43.460;25.744;2022-10-16T16:19:49;8.20;;;4.18;;
38693;SDS011;24447;43.460;25.744;2022-10-16T16:22:15;5.95;;;3.25;;
38693;SDS011;24447;43.460;25.744;2022-10-16T16:24:41;9.32;;;3.65;;
38693;SDS011;24447;43.460;25.744;2022-10-16T16:27:07;9.32;;;3.85;;
38693;SDS011;24447;43.460;25.744;2022-10-16T16:29:33;7.30;;;3.75;;
38693;SDS011;24447;43.460;25.744;2022-10-16T16:32:00;8.48;;;3.70;;
38693;SDS011;24447;43.460;25.744;2022-10-16T16:34:26;14.40;;;3.72;;
38693;SDS011;24447;43.460;25.744;2022-10-16T16:36:53;10.00;;;4.63;;
38693;SDS011;24447;43.460;25.744;2022-10-16T16:39:20;10.45;;;4.10;;
38693;SDS011;24447;43.460;25.744;2022-10-16T16:41:46;10.68;;;4.07;;
38693;SDS011;24447;43.460;25.744;2022-10-16T16:44:12;11.57;;;4.43;;
38693;SDS011;24447;43.460;25.744;2022-10-16T16:46:39;9.27;;;4.20;;
38693;SDS011;24447;43.460;25.744;2022-10-16T16:49:05;9.25;;;4.45;;
38693;SDS011;24447;43.460;25.744;2022-10-16T16:51:32;9.05;;;4.13;;
38693;SDS011;24447;43.460;25.744;2022-10-16T16:53:58;8.05;;;3.88;;
38693;SDS011;24447;43.460;25.744;2022-10-16T16:56:25;10.52;;;4.18;;
38693;SDS011;24447;43.460;25.744;2022-10-16T16:58:52;12.45;;;4.10;;
38693;SDS011;24447;43.460;25.744;2022-10-16T17:01:20;13.73;;;4.55;;
38693;SDS011;24447;43.460;25.744;2022-10-16T17:03:48;12.23;;;5.00;;